createdAt,value
2019-05-02T00:00:04.040Z,10.33
2019-05-02T00:02:34.040Z,10.80
2019-05-02T00:05:04.569Z,10.57
2019-05-02T00:07:34.332Z,13.10
2019-05-02T00:10:06.117Z,9.80
2019-05-02T00:12:36.259Z,10.70
2019-05-02T00:15:07.291Z,9.80
2019-05-02T00:17:37.421Z,8.83
2019-05-02T00:20:09.793Z,10.20
2019-05-02T00:22:39.423Z,9.37
2019-05-02T00:25:11.063Z,9.30
2019-05-02T00:27:40.335Z,9.00
2019-05-02T00:30:10.844Z,9.33
2019-05-02T00:32:40.434Z,8.47
2019-05-02T00:35:10.124Z,9.27
2019-05-02T00:37:40.195Z,12.93
2019-05-02T00:40:10.036Z,9.60
2019-05-02T00:42:39.499Z,9.43
2019-05-02T00:45:14.190Z,9.00
2019-05-02T00:47:53.095Z,10.67
2019-05-02T00:50:24.506Z,8.80
2019-05-02T00:52:54.059Z,9.53
2019-05-02T00:55:23.638Z,15.67
2019-05-02T00:57:55.633Z,22.23
2019-05-02T01:00:24.674Z,14.80
2019-05-02T01:02:58.114Z,11.83
2019-05-02T01:05:28.079Z,11.10
2019-05-02T01:08:01.159Z,10.97
2019-05-02T01:10:29.243Z,10.80
2019-05-02T01:12:59.054Z,11.37
2019-05-02T01:15:29.028Z,10.80
2019-05-02T01:18:01.180Z,10.53
2019-05-02T01:20:29.946Z,10.20
2019-05-02T01:22:59.730Z,9.83
2019-05-02T01:25:29.261Z,10.40
2019-05-02T01:28:19.798Z,18.67
2019-05-02T01:31:24.023Z,13.70
2019-05-02T01:34:03.562Z,11.13
2019-05-02T01:36:44.458Z,13.70
2019-05-02T01:39:14.271Z,12.47
2019-05-02T01:41:44.871Z,15.57
2019-05-02T01:44:14.370Z,23.87
2019-05-02T01:46:44.327Z,21.43
2019-05-02T01:49:16.837Z,23.30
2019-05-02T01:51:47.627Z,23.33
2019-05-02T01:54:16.465Z,23.83
2019-05-02T01:56:46.159Z,22.10
2019-05-02T01:59:15.749Z,24.17
2019-05-02T02:01:45.211Z,24.80
2019-05-02T02:04:16.142Z,24.60
2019-05-02T02:06:46.679Z,26.77
2019-05-02T02:09:16.289Z,26.67
2019-05-02T02:11:46.355Z,27.53
2019-05-02T02:14:18.544Z,28.37
2019-05-02T02:16:48.027Z,31.23
2019-05-02T02:19:23.060Z,28.80
2019-05-02T02:22:02.966Z,31.10
2019-05-02T02:24:38.308Z,33.47
2019-05-02T02:27:07.135Z,30.50
2019-05-02T02:29:39.117Z,30.70
2019-05-02T02:32:09.774Z,31.90
2019-05-02T02:34:39.161Z,32.73
2019-05-02T02:37:12.468Z,34.33
2019-05-02T02:39:39.364Z,35.63
2019-05-02T02:42:08.608Z,35.53
2019-05-02T02:45:03.158Z,37.67
2019-05-02T02:47:32.772Z,37.40
2019-05-02T02:50:05.112Z,37.87
2019-05-02T02:52:37.862Z,38.20
2019-05-02T02:55:04.565Z,40.80
2019-05-02T02:57:34.000Z,41.13
2019-05-02T03:00:07.654Z,41.60
2019-05-02T03:02:34.234Z,42.67
2019-05-02T03:05:03.531Z,43.20
2019-05-02T03:07:33.046Z,41.60
2019-05-02T03:10:06.028Z,41.97
2019-05-02T03:13:07.346Z,40.07
2019-05-02T03:15:41.382Z,40.70
2019-05-02T03:18:10.552Z,40.43
2019-05-02T03:20:40.564Z,40.30
2019-05-02T03:23:15.246Z,39.50
2019-05-02T03:25:50.715Z,38.37
2019-05-02T03:28:18.668Z,38.33
2019-05-02T03:30:43.885Z,38.80
2019-05-02T03:33:13.136Z,40.20
2019-05-02T03:35:48.730Z,40.57
2019-05-02T03:38:13.487Z,39.03
2019-05-02T03:40:43.095Z,41.60
2019-05-02T03:43:19.115Z,43.07
2019-05-02T03:45:44.150Z,40.10
2019-05-02T03:48:18.449Z,40.80
2019-05-02T03:50:44.622Z,40.27
2019-05-02T03:53:17.675Z,45.00
2019-05-02T03:55:45.349Z,42.53
2019-05-02T03:58:17.050Z,40.73
2019-05-02T04:00:45.745Z,46.27
2019-05-02T04:03:16.301Z,41.80
2019-05-02T04:05:45.595Z,40.97
2019-05-02T04:08:21.292Z,41.13
2019-05-02T04:11:39.072Z,40.97
2019-05-02T04:14:14.635Z,41.00
2019-05-02T04:16:35.934Z,41.97
2019-05-02T04:19:06.213Z,41.17
2019-05-02T04:21:36.661Z,40.47
2019-05-02T04:24:15.080Z,39.90
2019-05-02T04:26:37.603Z,40.10
2019-05-02T04:29:06.936Z,39.77
2019-05-02T04:31:36.178Z,40.63
2019-05-02T04:34:14.234Z,37.77
2019-05-02T04:36:36.687Z,39.27
2019-05-02T04:39:12.639Z,38.30
2019-05-02T04:41:39.158Z,41.30
2019-05-02T04:44:09.286Z,39.37
2019-05-02T04:46:39.039Z,39.47
2019-05-02T04:49:09.226Z,38.80
2019-05-02T04:51:38.789Z,40.83
2019-05-02T04:54:09.208Z,41.07
2019-05-02T04:56:48.252Z,40.07
2019-05-02T04:59:18.108Z,40.33
2019-05-02T05:01:48.369Z,39.17
2019-05-02T05:04:11.825Z,41.33
2019-05-02T05:06:52.507Z,42.37
2019-05-02T05:09:14.819Z,42.13
2019-05-02T05:11:42.908Z,40.73
2019-05-02T05:14:12.073Z,43.37
2019-05-02T05:16:45.431Z,36.13
2019-05-02T05:19:12.553Z,32.83
2019-05-02T05:21:41.778Z,33.37
2019-05-02T05:24:32.732Z,32.23
2019-05-02T05:27:00.174Z,33.70
2019-05-02T05:29:29.520Z,32.03
2019-05-02T05:32:05.465Z,32.67
2019-05-02T05:34:32.670Z,35.00
2019-05-02T05:37:03.746Z,37.73
2019-05-02T05:39:31.789Z,39.47
2019-05-02T05:42:01.351Z,40.67
2019-05-02T05:44:32.662Z,34.80
2019-05-02T05:47:02.370Z,41.93
2019-05-02T05:49:33.476Z,41.40
2019-05-02T05:52:04.100Z,40.10
2019-05-02T05:54:38.394Z,38.70
2019-05-02T05:57:04.922Z,43.37
2019-05-02T05:59:34.303Z,40.53
2019-05-02T06:02:05.495Z,38.63
2019-05-02T06:04:34.962Z,34.40
2019-05-02T06:07:04.289Z,35.43
2019-05-02T06:09:33.573Z,34.83
2019-05-02T06:12:02.849Z,34.00
2019-05-02T06:14:34.452Z,33.87
2019-05-02T06:17:03.066Z,33.93
2019-05-02T06:19:33.052Z,33.47
2019-05-02T06:22:02.998Z,43.87
2019-05-02T06:24:33.840Z,44.83
2019-05-02T06:27:03.646Z,46.50
2019-05-02T06:29:33.578Z,44.53
2019-05-02T06:32:06.165Z,45.70
2019-05-02T06:34:38.839Z,43.83
2019-05-02T06:37:08.078Z,45.87
2019-05-02T06:39:37.970Z,45.90
2019-05-02T06:42:07.310Z,46.07
2019-05-02T06:44:36.701Z,45.30
2019-05-02T06:47:06.251Z,45.07
2019-05-02T06:49:35.492Z,44.00
2019-05-02T06:52:04.663Z,43.93
2019-05-02T06:54:33.988Z,44.13
2019-05-02T06:57:03.767Z,45.03
2019-05-02T06:59:33.017Z,42.93
2019-05-02T07:02:02.517Z,43.67
2019-05-02T07:04:31.854Z,42.90
2019-05-02T07:07:01.437Z,44.47
2019-05-02T07:09:40.598Z,44.00
2019-05-02T07:12:01.909Z,43.90
2019-05-02T07:14:32.383Z,44.07
2019-05-02T07:17:09.807Z,43.13
2019-05-02T07:19:45.465Z,43.60
2019-05-02T07:22:14.732Z,44.33
2019-05-02T07:24:44.010Z,43.43
2019-05-02T07:27:13.284Z,44.43
2019-05-02T07:29:42.544Z,44.07
2019-05-02T07:32:11.917Z,44.50
2019-05-02T07:34:44.214Z,43.80
2019-05-02T07:37:13.785Z,43.73
2019-05-02T07:39:43.629Z,44.05
2019-05-02T07:42:12.921Z,44.87
2019-05-02T07:44:42.182Z,44.67
2019-05-02T07:47:12.337Z,45.03
2019-05-02T07:49:41.525Z,43.87
2019-05-02T07:52:11.150Z,45.60
2019-05-02T07:54:40.446Z,44.18
2019-05-02T07:57:09.733Z,43.77
2019-05-02T07:59:38.905Z,43.60
2019-05-02T08:02:08.442Z,44.40
2019-05-02T08:04:37.964Z,43.67
2019-05-02T08:07:07.312Z,43.73
2019-05-02T08:09:39.273Z,43.43
2019-05-02T08:12:08.518Z,44.53
2019-05-02T08:14:38.460Z,44.50
2019-05-02T08:17:16.163Z,45.63
2019-05-02T08:19:41.695Z,44.60
2019-05-02T08:22:13.835Z,46.43
2019-05-02T08:24:41.044Z,45.27
2019-05-02T08:27:37.082Z,46.93
2019-05-02T08:30:07.652Z,45.85
2019-05-02T08:32:37.290Z,46.77
2019-05-02T08:35:08.218Z,47.08
2019-05-02T08:37:41.051Z,45.43
2019-05-02T08:40:10.495Z,46.02
2019-05-02T08:42:40.075Z,47.00
2019-05-02T08:45:09.458Z,48.30
2019-05-02T08:47:38.746Z,49.70
2019-05-02T08:50:08.471Z,49.23
2019-05-02T08:52:42.117Z,47.13
2019-05-02T08:55:09.806Z,46.90
2019-05-02T08:57:39.366Z,43.83
2019-05-02T09:00:10.161Z,48.57
2019-05-02T09:02:41.662Z,48.33
2019-05-02T09:05:10.922Z,45.37
2019-05-02T09:07:42.748Z,47.43
2019-05-02T09:10:11.370Z,46.23
2019-05-02T09:12:44.346Z,45.75
2019-05-02T09:15:12.697Z,45.38
2019-05-02T09:17:46.513Z,45.52
2019-05-02T09:20:18.716Z,45.03
2019-05-02T09:22:46.506Z,43.70
2019-05-02T09:25:16.986Z,43.98
2019-05-02T09:27:46.291Z,44.95
2019-05-02T09:30:17.014Z,46.30
2019-05-02T09:32:46.974Z,43.90
2019-05-02T09:35:16.599Z,40.78
2019-05-02T09:37:45.986Z,43.58
2019-05-02T09:40:16.868Z,44.05
2019-05-02T09:42:50.607Z,42.63
2019-05-02T09:45:22.745Z,43.63
2019-05-02T09:47:59.645Z,43.98
2019-05-02T09:50:29.427Z,42.55
2019-05-02T09:52:54.823Z,41.50
2019-05-02T09:55:24.309Z,41.33
2019-05-02T09:57:54.571Z,38.85
2019-05-02T10:00:36.185Z,37.83
2019-05-02T10:03:05.661Z,36.38
2019-05-02T10:05:35.150Z,36.05
2019-05-02T10:08:06.899Z,37.17
2019-05-02T10:10:37.248Z,37.25
2019-05-02T10:13:08.154Z,38.15
2019-05-02T10:15:37.539Z,38.60
2019-05-02T10:18:10.713Z,36.35
2019-05-02T10:20:38.744Z,37.78
2019-05-02T10:23:12.020Z,38.48
2019-05-02T10:25:44.641Z,36.13
2019-05-02T10:28:12.789Z,36.53
2019-05-02T10:30:42.675Z,36.50
2019-05-02T10:33:13.122Z,37.13
2019-05-02T10:35:44.069Z,37.23
2019-05-02T10:38:17.638Z,37.20
2019-05-02T10:40:48.411Z,35.52
2019-05-02T10:43:15.906Z,35.28
2019-05-02T10:45:52.818Z,39.08
2019-05-02T10:48:25.797Z,36.40
2019-05-02T10:50:52.458Z,35.05
2019-05-02T10:53:22.061Z,36.42
2019-05-02T10:55:52.321Z,34.48
2019-05-02T10:58:25.825Z,35.75
2019-05-02T11:00:53.134Z,35.10
2019-05-02T11:03:31.972Z,33.28
2019-05-02T11:06:07.416Z,34.23
2019-05-02T11:08:36.747Z,33.73
2019-05-02T11:11:06.285Z,33.30
2019-05-02T11:13:55.401Z,33.28
2019-05-02T11:16:39.699Z,33.28
2019-05-02T11:19:31.847Z,33.13
2019-05-02T11:22:02.921Z,34.27
2019-05-02T11:24:32.221Z,32.95
2019-05-02T11:27:02.207Z,29.48
2019-05-02T11:29:32.295Z,31.10
2019-05-02T11:32:02.799Z,33.78
2019-05-02T11:34:32.768Z,32.03
2019-05-02T11:37:02.286Z,33.90
2019-05-02T11:39:36.956Z,31.33
2019-05-02T11:42:02.625Z,32.83
2019-05-02T11:44:32.730Z,29.50
2019-05-02T11:47:02.189Z,28.67
2019-05-02T11:49:32.101Z,28.87
2019-05-02T11:52:04.570Z,26.62
2019-05-02T11:54:32.844Z,26.12
2019-05-02T11:57:02.350Z,25.75
2019-05-02T11:59:33.230Z,27.17
2019-05-02T12:02:24.432Z,27.50
2019-05-02T12:04:55.501Z,27.30
2019-05-02T12:07:25.178Z,27.22
2019-05-02T12:09:56.992Z,26.93
2019-05-02T12:12:27.241Z,25.77
2019-05-02T12:14:56.732Z,24.52
2019-05-02T12:17:26.009Z,23.87
2019-05-02T12:19:55.231Z,21.97
2019-05-02T12:22:24.495Z,22.37
2019-05-02T12:24:53.758Z,22.58
2019-05-02T12:27:23.494Z,27.07
2019-05-02T12:29:57.897Z,25.05
2019-05-02T12:32:24.726Z,23.75
2019-05-02T12:34:55.154Z,21.52
2019-05-02T12:37:24.632Z,22.65
2019-05-02T12:39:53.892Z,23.07
2019-05-02T12:42:24.171Z,20.27
2019-05-02T12:44:53.684Z,19.87
2019-05-02T12:47:22.943Z,17.60
2019-05-02T12:49:52.170Z,18.20
2019-05-02T12:52:22.587Z,20.72
2019-05-02T12:54:52.639Z,21.12
2019-05-02T12:57:23.126Z,21.25
2019-05-02T12:59:52.606Z,20.62
2019-05-02T13:02:45.908Z,18.95
2019-05-02T13:05:15.470Z,17.65
2019-05-02T13:07:50.529Z,16.60
2019-05-02T13:10:24.190Z,15.95
2019-05-02T13:12:53.405Z,15.00
2019-05-02T13:15:22.840Z,13.60
2019-05-02T13:17:52.458Z,15.72
2019-05-02T13:20:24.745Z,15.85
2019-05-02T13:23:22.523Z,15.83
2019-05-02T13:25:51.884Z,14.58
2019-05-02T13:28:22.317Z,15.13
2019-05-02T13:31:17.173Z,13.43
2019-05-02T13:33:57.051Z,14.20
2019-05-02T13:36:52.431Z,14.95
2019-05-02T13:39:37.448Z,14.25
2019-05-02T13:42:07.173Z,14.40
2019-05-02T13:44:41.657Z,14.78
2019-05-02T13:47:12.550Z,14.38
2019-05-02T13:49:53.575Z,14.50
2019-05-02T13:52:14.747Z,14.63
2019-05-02T13:54:44.037Z,13.72
2019-05-02T13:57:13.719Z,14.10
2019-05-02T13:59:43.264Z,14.98
2019-05-02T14:02:33.659Z,14.20
2019-05-02T14:05:02.958Z,14.75
2019-05-02T14:07:32.799Z,14.30
2019-05-02T14:10:05.939Z,14.07
2019-05-02T14:12:52.860Z,14.10
2019-05-02T14:15:23.062Z,14.58
2019-05-02T14:17:52.612Z,14.63
2019-05-02T14:20:22.537Z,14.18
2019-05-02T14:22:52.698Z,14.33
2019-05-02T14:25:22.663Z,14.15
2019-05-02T14:27:55.498Z,13.88
2019-05-02T14:30:36.009Z,14.50
2019-05-02T14:32:57.939Z,13.15
2019-05-02T14:35:29.760Z,13.28
2019-05-02T14:38:09.032Z,13.75
2019-05-02T14:40:45.514Z,12.58
2019-05-02T14:43:38.079Z,13.18
2019-05-02T14:46:05.615Z,12.28
2019-05-02T14:48:45.072Z,11.95
2019-05-02T14:51:16.793Z,12.28
2019-05-02T14:53:43.462Z,13.00
2019-05-02T14:56:32.939Z,13.13
2019-05-02T14:59:02.718Z,12.60
2019-05-02T15:01:32.308Z,11.90
2019-05-02T15:04:06.380Z,10.98
2019-05-02T15:06:33.756Z,11.83
2019-05-02T15:09:03.804Z,11.53
2019-05-02T15:11:34.955Z,12.40
2019-05-02T15:14:03.999Z,12.00
2019-05-02T15:16:42.079Z,12.35
2019-05-02T15:19:04.426Z,12.60
2019-05-02T15:21:54.722Z,13.10
2019-05-02T15:24:23.122Z,11.88
2019-05-02T15:26:52.856Z,12.50
2019-05-02T15:29:27.095Z,12.13
2019-05-02T15:32:07.093Z,11.97
2019-05-02T15:34:55.597Z,11.73
2019-05-02T15:37:25.930Z,10.28
2019-05-02T15:42:26.451Z,9.73
2019-05-02T15:44:57.186Z,10.68
2019-05-02T15:47:27.149Z,9.93
2019-05-02T15:49:56.473Z,10.45
2019-05-02T15:52:29.919Z,10.20
2019-05-02T15:55:01.216Z,10.40
2019-05-02T15:57:37.653Z,13.32
2019-05-02T16:00:01.684Z,14.90
2019-05-02T16:02:32.147Z,15.08
2019-05-02T16:05:05.319Z,16.02
2019-05-02T16:07:33.281Z,14.78
2019-05-02T16:10:03.929Z,14.90
2019-05-02T16:12:36.064Z,16.32
2019-05-02T16:15:12.940Z,15.25
2019-05-02T16:17:35.905Z,15.48
2019-05-02T16:20:13.417Z,15.28
2019-05-02T16:22:46.219Z,13.28
2019-05-02T16:25:14.043Z,14.35
2019-05-02T16:27:45.390Z,14.18
2019-05-02T16:30:16.402Z,14.70
2019-05-02T16:32:52.064Z,14.30
2019-05-02T16:35:22.969Z,14.78
2019-05-02T16:37:55.866Z,14.38
2019-05-02T16:40:29.749Z,14.95
2019-05-02T16:42:54.763Z,14.55
2019-05-02T16:45:24.409Z,14.20
2019-05-02T16:47:58.573Z,14.75
2019-05-02T16:50:34.769Z,14.85
2019-05-02T16:52:57.037Z,13.90
2019-05-02T16:55:26.870Z,14.15
2019-05-02T16:57:56.608Z,14.25
2019-05-02T17:00:28.761Z,11.80
2019-05-02T17:02:58.149Z,10.63
2019-05-02T17:05:27.478Z,10.82
2019-05-02T17:08:10.754Z,9.78
2019-05-02T17:10:53.777Z,10.60
2019-05-02T17:13:21.638Z,10.30
2019-05-02T17:15:52.282Z,10.63
2019-05-02T17:18:22.852Z,10.33
2019-05-02T17:20:56.828Z,10.48
2019-05-02T17:23:26.745Z,10.80
2019-05-02T17:25:57.078Z,11.30
2019-05-02T17:28:32.840Z,10.20
2019-05-02T17:31:02.245Z,10.83
2019-05-02T17:33:32.411Z,11.33
2019-05-02T17:36:02.220Z,11.83
2019-05-02T17:38:31.647Z,11.37
2019-05-02T17:41:04.913Z,10.97
2019-05-02T17:43:37.479Z,10.80
2019-05-02T17:46:07.495Z,11.83
2019-05-02T17:48:37.369Z,12.63
2019-05-02T17:51:16.363Z,12.00
2019-05-02T17:53:49.693Z,11.57
2019-05-02T17:56:20.462Z,12.43
2019-05-02T17:58:56.872Z,11.93
2019-05-02T18:01:33.294Z,12.13
2019-05-02T18:04:01.996Z,13.27
2019-05-02T18:06:34.995Z,13.22
2019-05-02T18:09:03.728Z,12.70
2019-05-02T18:11:36.437Z,12.97
2019-05-02T18:14:10.301Z,12.87
2019-05-02T18:16:35.532Z,14.03
2019-05-02T18:19:04.845Z,13.50
2019-05-02T18:21:34.209Z,15.40
2019-05-02T18:24:06.008Z,14.37
2019-05-02T18:26:34.710Z,14.77
2019-05-02T18:29:06.811Z,14.97
2019-05-02T18:31:40.082Z,16.07
2019-05-02T18:34:06.843Z,19.33
2019-05-02T18:36:36.064Z,17.77
2019-05-02T18:39:08.432Z,17.47
2019-05-02T18:41:42.742Z,18.20
2019-05-02T18:44:09.020Z,17.70
2019-05-02T18:46:41.560Z,17.67
2019-05-02T18:49:09.350Z,19.63
2019-05-02T18:51:39.518Z,17.93
2019-05-02T18:54:12.001Z,19.03
2019-05-02T18:56:46.415Z,17.73
2019-05-02T18:59:14.261Z,15.40
2019-05-02T19:01:47.511Z,16.47
2019-05-02T19:04:14.642Z,15.87
2019-05-02T19:06:43.956Z,14.80
2019-05-02T19:09:17.438Z,15.43
2019-05-02T19:11:44.566Z,15.53
2019-05-02T19:14:16.631Z,14.93
2019-05-02T19:16:45.021Z,14.30
2019-05-02T19:19:14.334Z,13.97
2019-05-02T19:21:43.706Z,14.60
2019-05-02T19:24:13.278Z,15.20
2019-05-02T19:26:49.123Z,15.87
2019-05-02T19:29:21.504Z,17.97
2019-05-02T19:31:52.797Z,17.50
2019-05-02T19:34:26.613Z,16.63
2019-05-02T19:36:58.076Z,16.30
2019-05-02T19:39:26.116Z,15.57
2019-05-02T19:41:55.442Z,14.23
2019-05-02T19:44:29.248Z,14.67
2019-05-02T19:46:55.775Z,15.03
2019-05-02T19:49:26.325Z,13.07
2019-05-02T19:51:58.258Z,13.87
2019-05-02T19:54:33.580Z,12.97
2019-05-02T19:56:59.152Z,14.10
2019-05-02T19:59:29.751Z,13.07
2019-05-02T20:02:02.406Z,13.47
2019-05-02T20:04:32.879Z,14.23
2019-05-02T20:07:02.493Z,14.43
2019-05-02T20:09:33.285Z,14.17
2019-05-02T20:12:07.632Z,14.40
2019-05-02T20:14:38.155Z,15.97
2019-05-02T20:17:06.398Z,14.57
2019-05-02T20:19:38.255Z,14.70
2019-05-02T20:22:12.633Z,15.33
2019-05-02T20:25:00.284Z,14.87
2019-05-02T20:27:28.558Z,15.07
2019-05-02T20:29:58.292Z,15.47
2019-05-02T20:32:29.414Z,16.73
2019-05-02T20:34:58.685Z,15.57
2019-05-02T20:37:28.506Z,16.90
2019-05-02T20:39:57.921Z,16.23
2019-05-02T20:42:27.625Z,17.53
2019-05-02T20:44:57.224Z,17.07
2019-05-02T20:47:27.041Z,18.00
2019-05-02T20:49:56.745Z,16.57
2019-05-02T20:52:26.067Z,17.53
2019-05-02T20:54:55.345Z,16.63
2019-05-02T20:57:25.723Z,19.33
2019-05-02T20:59:55.117Z,17.93
2019-05-02T21:02:24.424Z,17.90
2019-05-02T21:04:53.719Z,18.23
2019-05-02T21:07:42.430Z,18.50
2019-05-02T21:10:21.803Z,17.17
2019-05-02T21:12:52.615Z,19.37
2019-05-02T21:15:22.712Z,19.87
2019-05-02T21:17:51.872Z,19.27
2019-05-02T21:20:21.938Z,19.37
2019-05-02T21:22:52.926Z,19.97
2019-05-02T21:25:23.228Z,19.80
2019-05-02T21:27:52.850Z,19.37
2019-05-02T21:30:27.651Z,20.07
2019-05-02T21:32:56.931Z,20.20
2019-05-02T21:35:26.293Z,19.47
2019-05-02T21:37:55.661Z,21.63
2019-05-02T21:40:25.862Z,20.97
2019-05-02T21:42:55.680Z,21.40
2019-05-02T21:45:25.513Z,22.33
2019-05-02T21:47:55.098Z,23.07
2019-05-02T21:50:34.828Z,21.27
2019-05-02T21:53:23.584Z,22.37
2019-05-02T21:56:17.499Z,21.97
2019-05-02T21:59:05.861Z,23.00
2019-05-02T22:01:42.209Z,21.17
2019-05-02T22:04:13.124Z,22.63
2019-05-02T22:06:42.851Z,23.37
2019-05-02T22:09:12.561Z,20.70
2019-05-02T22:11:42.990Z,22.27
2019-05-02T22:14:13.245Z,21.80
2019-05-02T22:16:42.997Z,21.23
2019-05-02T22:19:12.854Z,21.83
2019-05-02T22:21:43.021Z,12.63
2019-05-02T22:24:14.467Z,15.50
2019-05-02T22:26:43.661Z,15.33
2019-05-02T22:29:12.986Z,14.97
2019-05-02T22:31:43.149Z,16.53
2019-05-02T22:34:13.249Z,15.33
2019-05-02T22:36:43.020Z,14.17
2019-05-02T22:39:50.274Z,14.70
2019-05-02T22:42:21.764Z,15.00
2019-05-02T22:44:50.940Z,15.77
2019-05-02T22:47:22.736Z,15.83
2019-05-02T22:49:52.115Z,16.43
2019-05-02T22:52:21.931Z,16.17
2019-05-02T22:54:52.298Z,16.47
2019-05-02T22:57:22.545Z,17.70
2019-05-02T22:59:52.176Z,18.20
2019-05-02T23:02:22.085Z,14.70
2019-05-02T23:04:52.645Z,13.77
2019-05-02T23:07:22.401Z,14.20
2019-05-02T23:09:52.714Z,12.37
2019-05-02T23:12:22.551Z,10.57
2019-05-02T23:14:53.063Z,9.63
2019-05-02T23:17:23.261Z,7.90
2019-05-02T23:19:52.907Z,9.03
2019-05-02T23:22:22.277Z,8.43
2019-05-02T23:25:09.534Z,9.03
2019-05-02T23:27:45.962Z,9.17
2019-05-02T23:30:19.385Z,8.27
2019-05-02T23:32:48.560Z,8.20
2019-05-02T23:35:17.800Z,8.03
2019-05-02T23:37:46.980Z,8.50
2019-05-02T23:40:16.530Z,7.70
2019-05-02T23:42:45.768Z,7.33
2019-05-02T23:45:15.174Z,7.07
2019-05-02T23:47:44.804Z,8.03
2019-05-02T23:50:14.281Z,6.90
2019-05-02T23:52:43.537Z,7.40
2019-05-02T23:55:12.942Z,7.43
2019-05-02T23:57:42.266Z,7.47
